Time;durP1;ratioP1;P1;durP2;ratioP2;P2;SDS_P1;SDS_P2;PMS_P1;PMS_P2;Temp;Humidity;BMP_temperature;BMP_pressure;BME280_temperature;BME280_humidity;BME280_pressure;Samples;Min_cycle;Max_cycle;Signal;HPM_P1;HPM_P2
2023/05/06 00:00:01;;;;;;;4.07;2.60;;;16.50;71.10;;;;;;5033326;28;20021;-60
2023/05/06 00:02:28;;;;;;;4.30;2.75;;;16.50;71.10;;;;;;5033478;28;20040;-62
2023/05/06 00:04:54;;;;;;;4.50;2.50;;;16.50;71.20;;;;;;5036158;28;20044;-59
2023/05/06 00:07:20;;;;;;;2.92;2.33;;;16.40;71.10;;;;;;5036584;28;20037;-60
2023/05/06 00:09:46;;;;;;;3.28;2.35;;;16.50;71.20;;;;;;5035533;28;20116;-60
2023/05/06 00:12:12;;;;;;;6.15;2.85;;;16.50;71.20;;;;;;5034722;28;20052;-61
2023/05/06 00:14:38;;;;;;;4.55;2.83;;;16.50;71.20;;;;;;5035392;28;20088;-60
2023/05/06 00:17:04;;;;;;;4.00;2.67;;;16.50;71.30;;;;;;5033460;28;20080;-60
2023/05/06 00:19:30;;;;;;;2.47;2.28;;;16.40;71.20;;;;;;5034943;28;20544;-62
2023/05/06 00:21:56;;;;;;;2.92;2.63;;;16.50;71.40;;;;;;5033628;28;20021;-60
2023/05/06 00:24:21;;;;;;;3.85;2.80;;;16.40;71.20;;;;;;5030533;28;20029;-61
2023/05/06 00:26:47;;;;;;;4.28;2.97;;;16.40;71.20;;;;;;5035083;28;20021;-62
2023/05/06 00:29:13;;;;;;;3.60;2.83;;;16.40;71.30;;;;;;5033687;28;20421;-62
2023/05/06 00:31:39;;;;;;;3.08;2.70;;;16.40;71.40;;;;;;5034717;28;20017;-60
2023/05/06 00:34:05;;;;;;;3.30;2.65;;;16.40;71.40;;;;;;5035504;28;20093;-60
2023/05/06 00:36:31;;;;;;;3.95;2.80;;;16.40;71.60;;;;;;5035516;28;20075;-61
2023/05/06 00:38:56;;;;;;;4.05;2.88;;;16.40;71.70;;;;;;5031278;28;20033;-60
2023/05/06 00:41:22;;;;;;;3.80;2.90;;;16.40;71.80;;;;;;4928071;28;20034;-59
2023/05/06 00:43:48;;;;;;;3.17;2.72;;;16.40;71.80;;;;;;5036957;28;20067;-59
2023/05/06 00:46:16;;;;;;;5.32;2.80;;;16.40;71.80;;;;;;5036060;28;20037;-60
2023/05/06 00:48:43;;;;;;;3.97;2.78;;;16.40;72.00;;;;;;5035113;28;20456;-59
2023/05/06 00:51:09;;;;;;;2.90;2.55;;;16.40;72.00;;;;;;5034190;28;20527;-60
2023/05/06 00:53:35;;;;;;;4.70;2.75;;;16.40;72.00;;;;;;5033702;28;20060;-61
2023/05/06 00:56:02;;;;;;;3.40;2.63;;;16.40;72.00;;;;;;5034045;28;20021;-59
2023/05/06 00:58:27;;;;;;;3.13;2.40;;;16.40;72.00;;;;;;5033424;28;20044;-59
2023/05/06 01:00:54;;;;;;;2.95;2.40;;;16.40;71.90;;;;;;5034103;28;20030;-60
2023/05/06 01:03:19;;;;;;;4.07;2.92;;;16.40;71.80;;;;;;5034347;28;20501;-60
2023/05/06 01:06:10;;;;;;;7.22;5.07;;;16.40;71.80;;;;;;5030741;28;20025;-60
2023/05/06 01:08:59;;;;;;;6.82;4.75;;;16.40;72.90;;;;;;4981711;28;20049;-61
2023/05/06 01:11:46;;;;;;;6.95;5.72;;;16.40;72.60;;;;;;5029484;28;20443;-59
2023/05/06 01:14:45;;;;;;;7.03;4.88;;;16.40;71.60;;;;;;5034970;28;20038;-62
2023/05/06 01:17:13;;;;;;;7.80;3.90;;;16.40;72.20;;;;;;5017012;28;20398;-60
2023/05/06 01:19:54;;;;;;;7.72;4.20;;;16.30;71.40;;;;;;5030867;28;20036;-60
2023/05/06 01:22:21;;;;;;;5.93;3.83;;;16.30;72.30;;;;;;5034528;28;20560;-60
2023/05/06 01:24:47;;;;;;;4.30;3.47;;;16.20;71.80;;;;;;5035279;28;20025;-60
2023/05/06 01:27:13;;;;;;;7.35;3.97;;;16.20;72.70;;;;;;5019396;28;20100;-62
2023/05/06 01:29:42;;;;;;;6.93;4.90;;;16.20;72.20;;;;;;5029121;28;20044;-59
2023/05/06 01:32:20;;;;;;;5.88;5.07;;;16.20;72.40;;;;;;5039328;28;20018;-61
2023/05/06 01:34:58;;;;;;;5.65;4.55;;;16.20;72.80;;;;;;5023179;28;20018;-59
2023/05/06 01:37:27;;;;;;;4.47;3.83;;;16.20;72.70;;;;;;5021776;28;20089;-59
2023/05/06 01:39:56;;;;;;;4.72;3.45;;;16.20;72.20;;;;;;5034148;28;20052;-61
2023/05/06 01:42:23;;;;;;;6.05;2.97;;;16.20;72.10;;;;;;4944758;28;20026;-61
2023/05/06 01:44:50;;;;;;;7.78;3.03;;;16.20;71.90;;;;;;5029279;28;20029;-59
2023/05/06 01:47:16;;;;;;;4.13;3.45;;;16.10;71.80;;;;;;5034077;28;20033;-62
2023/05/06 01:49:42;;;;;;;3.97;3.30;;;16.10;71.80;;;;;;5034627;28;20063;-61
2023/05/06 01:52:08;;;;;;;3.60;3.03;;;16.10;71.90;;;;;;5022428;28;20094;-60
2023/05/06 01:54:33;;;;;;;4.22;3.20;;;16.10;72.00;;;;;;5035342;28;20029;-59
2023/05/06 01:56:59;;;;;;;6.53;3.83;;;16.00;72.00;;;;;;5035966;28;20029;-60
2023/05/06 01:59:25;;;;;;;5.40;3.60;;;16.00;72.10;;;;;;5035045;28;20049;-61
2023/05/06 02:01:50;;;;;;;4.00;3.60;;;16.00;71.90;;;;;;5032635;28;20048;-61
2023/05/06 02:04:16;;;;;;;4.63;3.63;;;16.00;72.10;;;;;;5030827;28;20401;-61
2023/05/06 02:06:42;;;;;;;5.22;3.85;;;16.00;72.10;;;;;;5033983;28;20067;-60
2023/05/06 02:09:08;;;;;;;5.72;3.90;;;15.90;72.10;;;;;;5014776;28;20045;-58
2023/05/06 02:11:33;;;;;;;6.18;4.43;;;15.90;72.10;;;;;;5032789;28;20022;-60
2023/05/06 02:14:00;;;;;;;5.13;3.78;;;15.90;72.00;;;;;;5030994;28;20065;-62
2023/05/06 02:16:27;;;;;;;5.88;4.38;;;15.90;72.10;;;;;;5032439;28;20026;-61
2023/05/06 02:18:53;;;;;;;6.10;3.92;;;15.90;72.30;;;;;;5030074;28;20113;-60
2023/05/06 02:21:19;;;;;;;6.18;4.50;;;15.80;72.20;;;;;;5033235;28;20018;-61
2023/05/06 02:23:45;;;;;;;7.47;4.68;;;15.80;72.20;;;;;;5034202;28;20044;-59
2023/05/06 02:26:10;;;;;;;4.97;4.18;;;15.80;72.20;;;;;;5014791;28;20129;-60
2023/05/06 02:28:36;;;;;;;5.45;4.53;;;15.80;72.20;;;;;;5027276;28;20036;-63
2023/05/06 02:31:02;;;;;;;5.50;4.50;;;15.70;72.10;;;;;;5035156;28;20049;-60
2023/05/06 02:33:27;;;;;;;7.07;4.70;;;15.70;72.10;;;;;;5032314;28;20045;-60
2023/05/06 02:35:53;;;;;;;6.57;4.22;;;15.70;72.10;;;;;;5029227;28;20025;-59
2023/05/06 02:38:21;;;;;;;10.32;4.38;;;15.60;71.80;;;;;;5030162;28;20037;-60
2023/05/06 02:40:46;;;;;;;10.40;4.68;;;15.60;72.10;;;;;;5031275;28;20030;-60
2023/05/06 02:43:12;;;;;;;8.68;4.65;;;15.60;71.90;;;;;;5029237;28;20764;-60
2023/05/06 02:45:38;;;;;;;5.28;4.78;;;15.50;71.90;;;;;;5026702;28;20027;-60
2023/05/06 02:48:04;;;;;;;10.82;5.80;;;15.50;72.00;;;;;;5028440;28;20447;-60
2023/05/06 02:50:30;;;;;;;7.43;5.22;;;15.40;72.00;;;;;;5019899;28;20096;-60
2023/05/06 02:52:55;;;;;;;6.70;5.35;;;15.40;71.90;;;;;;5035961;28;20056;-61
2023/05/06 02:55:21;;;;;;;6.70;5.03;;;15.40;71.90;;;;;;5039000;28;20044;-60
2023/05/06 02:57:46;;;;;;;6.05;5.03;;;15.30;71.80;;;;;;5025236;28;22935;-61
2023/05/06 03:00:14;;;;;;;6.13;5.00;;;15.30;71.80;;;;;;5031010;28;20490;-60
2023/05/06 03:02:40;;;;;;;6.40;5.25;;;15.20;71.70;;;;;;5030671;28;20032;-61
2023/05/06 03:05:06;;;;;;;6.45;4.40;;;15.20;71.80;;;;;;5036849;28;20097;-60
2023/05/06 03:07:33;;;;;;;11.82;4.15;;;15.20;71.80;;;;;;5031708;28;20650;-59
2023/05/06 03:09:59;;;;;;;19.30;3.00;;;15.10;71.70;;;;;;5035469;28;20033;-59
2023/05/06 03:12:25;;;;;;;24.73;3.22;;;15.10;71.70;;;;;;5035010;28;20175;-60
2023/05/06 03:14:51;;;;;;;43.22;4.18;;;15.00;71.80;;;;;;5037795;28;20021;-58
2023/05/06 03:17:16;;;;;;;38.63;3.47;;;15.00;71.70;;;;;;5035597;28;20068;-60
2023/05/06 03:19:43;;;;;;;11.57;3.60;;;14.90;71.80;;;;;;5036276;28;20025;-60
2023/05/06 03:22:08;;;;;;;28.55;3.60;;;14.90;71.80;;;;;;5034993;28;20048;-59
2023/05/06 03:24:34;;;;;;;37.17;4.32;;;14.90;71.90;;;;;;5033562;28;20482;-60
2023/05/06 03:27:00;;;;;;;11.70;3.80;;;14.80;71.70;;;;;;5035157;28;20029;-61
2023/05/06 03:29:26;;;;;;;16.05;3.97;;;14.80;71.90;;;;;;5037686;28;20046;-60
2023/05/06 03:31:54;;;;;;;4.35;3.53;;;14.80;72.00;;;;;;5037057;28;20026;-60
2023/05/06 03:34:19;;;;;;;4.10;3.70;;;14.70;72.00;;;;;;5036735;28;20029;-60
2023/05/06 03:36:45;;;;;;;5.07;3.72;;;14.70;72.10;;;;;;5035622;28;20124;-60
2023/05/06 03:39:11;;;;;;;5.38;3.58;;;14.60;72.20;;;;;;5037296;28;20048;-60
2023/05/06 03:41:37;;;;;;;6.28;3.83;;;14.70;72.30;;;;;;4983036;28;20083;-60
2023/05/06 03:44:02;;;;;;;4.88;3.58;;;14.60;72.20;;;;;;5035713;28;20088;-59
2023/05/06 03:46:28;;;;;;;5.72;3.70;;;14.60;72.20;;;;;;5036277;28;20113;-59
2023/05/06 03:48:54;;;;;;;7.65;3.75;;;14.60;72.20;;;;;;5030744;28;20049;-60
2023/05/06 03:51:20;;;;;;;4.72;3.67;;;14.60;72.20;;;;;;5037635;28;20036;-60
2023/05/06 03:53:45;;;;;;;3.90;3.35;;;14.50;72.10;;;;;;5036916;28;20255;-60
2023/05/06 03:56:11;;;;;;;4.80;3.47;;;14.50;72.00;;;;;;5037451;28;20033;-59
2023/05/06 03:58:37;;;;;;;4.18;3.50;;;14.50;72.10;;;;;;5035197;28;20029;-61
2023/05/06 04:01:03;;;;;;;4.43;3.35;;;14.40;72.10;;;;;;5033810;28;20442;-60
2023/05/06 04:03:29;;;;;;;5.53;3.25;;;14.40;72.00;;;;;;5037348;28;20064;-61
2023/05/06 04:05:54;;;;;;;5.03;3.53;;;14.40;72.10;;;;;;5036528;28;20052;-60
2023/05/06 04:08:20;;;;;;;7.45;3.30;;;14.40;72.10;;;;;;5033347;28;20038;-59
2023/05/06 04:10:46;;;;;;;6.05;3.22;;;14.30;72.10;;;;;;5028957;28;20048;-61
2023/05/06 04:13:11;;;;;;;4.22;3.47;;;14.40;72.40;;;;;;5035741;28;20116;-60
2023/05/06 04:15:37;;;;;;;8.23;3.65;;;14.30;72.60;;;;;;5035327;28;20033;-60
2023/05/06 04:18:05;;;;;;;3.95;3.45;;;14.30;72.90;;;;;;5036102;28;20064;-61
2023/05/06 04:20:30;;;;;;;4.60;3.67;;;14.30;73.30;;;;;;5036189;28;20044;-62
2023/05/06 04:22:56;;;;;;;7.80;3.25;;;14.30;73.40;;;;;;5035891;28;20033;-60
2023/05/06 04:25:21;;;;;;;3.40;3.10;;;14.30;73.40;;;;;;5035650;28;20127;-60
2023/05/06 04:27:47;;;;;;;5.13;3.22;;;14.30;73.30;;;;;;5035870;28;20037;-59
2023/05/06 04:30:13;;;;;;;6.20;3.42;;;14.30;73.20;;;;;;5034916;28;20041;-61
2023/05/06 04:32:39;;;;;;;2.92;2.65;;;14.30;73.20;;;;;;5029985;28;20036;-59
2023/05/06 04:35:05;;;;;;;5.38;2.58;;;14.40;73.20;;;;;;5037373;28;20034;-61
2023/05/06 04:37:31;;;;;;;2.95;2.70;;;14.40;73.00;;;;;;5017413;28;20030;-62
2023/05/06 04:39:57;;;;;;;3.75;2.92;;;14.40;73.00;;;;;;5034964;28;20040;-61
2023/05/06 04:42:23;;;;;;;3.38;3.08;;;14.40;73.00;;;;;;4930984;28;20025;-60
2023/05/06 04:44:48;;;;;;;4.38;3.25;;;14.40;73.10;;;;;;5034496;28;20580;-60
2023/05/06 04:47:14;;;;;;;3.30;2.95;;;14.40;73.20;;;;;;5016369;28;20513;-60
2023/05/06 04:49:41;;;;;;;3.45;2.83;;;14.40;73.10;;;;;;5035380;28;20060;-59
2023/05/06 04:52:06;;;;;;;4.22;2.95;;;14.40;73.00;;;;;;5018775;28;20155;-59
2023/05/06 04:54:32;;;;;;;4.40;2.90;;;14.40;73.00;;;;;;5035389;28;20426;-60
2023/05/06 04:56:58;;;;;;;4.63;3.30;;;14.50;73.10;;;;;;5034609;28;20433;-60
2023/05/06 04:59:23;;;;;;;3.42;3.00;;;14.50;73.10;;;;;;5030584;28;20021;-61
2023/05/06 05:01:49;;;;;;;3.75;2.75;;;14.50;73.10;;;;;;5033633;28;20037;-61
2023/05/06 05:04:15;;;;;;;4.47;2.72;;;14.50;73.20;;;;;;5034494;28;20040;-61
2023/05/06 05:06:41;;;;;;;3.15;2.85;;;14.60;73.10;;;;;;5035023;28;20060;-59
2023/05/06 05:09:07;;;;;;;3.88;3.17;;;14.60;73.20;;;;;;5030286;28;20041;-59
2023/05/06 05:11:32;;;;;;;3.50;3.00;;;14.60;73.10;;;;;;5034957;28;20026;-59
2023/05/06 05:13:58;;;;;;;4.85;3.30;;;14.60;73.10;;;;;;5035149;28;20052;-61
2023/05/06 05:16:24;;;;;;;4.43;3.38;;;14.60;73.10;;;;;;5031904;28;20053;-59
2023/05/06 05:18:49;;;;;;;5.80;3.60;;;14.70;73.20;;;;;;5033295;28;20025;-61
2023/05/06 05:21:15;;;;;;;4.35;3.50;;;14.70;73.30;;;;;;5034683;28;20280;-61
2023/05/06 05:23:41;;;;;;;3.70;3.40;;;14.70;73.30;;;;;;5017736;28;20373;-60
2023/05/06 05:26:06;;;;;;;3.55;3.17;;;14.80;73.30;;;;;;5032228;28;20094;-60
2023/05/06 05:28:32;;;;;;;4.30;3.58;;;14.80;73.20;;;;;;5033789;28;20430;-59
2023/05/06 05:31:02;;;;;;;4.43;3.97;;;14.90;73.20;;;;;;5033613;28;20383;-61
2023/05/06 05:33:29;;;;;;;4.72;4.25;;;14.90;73.30;;;;;;5033634;28;20033;-61
2023/05/06 05:35:54;;;;;;;5.60;4.85;;;15.00;73.20;;;;;;5030970;28;20022;-59
2023/05/06 05:38:20;;;;;;;5.28;4.75;;;14.90;73.30;;;;;;5033313;28;20036;-60
2023/05/06 05:40:46;;;;;;;8.05;5.13;;;15.00;73.50;;;;;;5032997;28;20042;-60
2023/05/06 05:43:11;;;;;;;5.45;4.65;;;15.10;73.50;;;;;;5035511;28;20460;-59
2023/05/06 05:45:37;;;;;;;5.13;4.60;;;15.10;73.40;;;;;;5031729;28;20363;-61
2023/05/06 05:48:03;;;;;;;5.55;4.70;;;15.20;73.50;;;;;;5032864;28;20029;-59
2023/05/06 05:50:29;;;;;;;5.18;4.35;;;15.20;73.60;;;;;;5035490;28;20041;-59
2023/05/06 05:52:54;;;;;;;9.85;4.80;;;15.30;73.90;;;;;;5030259;28;20030;-61
2023/05/06 05:55:20;;;;;;;6.85;4.97;;;15.40;74.00;;;;;;5034514;28;20057;-60
2023/05/06 05:57:46;;;;;;;5.63;4.93;;;15.50;74.40;;;;;;5031476;28;20097;-60
2023/05/06 06:00:12;;;;;;;7.28;4.97;;;15.60;74.20;;;;;;5028676;28;20502;-61
2023/05/06 06:02:38;;;;;;;5.65;4.53;;;15.70;74.20;;;;;;5031138;28;20033;-61
2023/05/06 06:05:04;;;;;;;5.93;4.07;;;15.90;74.20;;;;;;5032085;28;20509;-60
2023/05/06 06:07:29;;;;;;;4.97;4.50;;;16.00;74.00;;;;;;5032945;28;20029;-61
2023/05/06 06:09:55;;;;;;;4.95;4.45;;;16.10;73.80;;;;;;5034480;28;20047;-60
2023/05/06 06:12:21;;;;;;;4.57;3.85;;;16.20;73.80;;;;;;5036035;28;20045;-64
2023/05/06 06:14:47;;;;;;;7.38;4.68;;;16.30;73.80;;;;;;5038876;28;20478;-62
2023/05/06 06:17:14;;;;;;;8.15;4.55;;;16.40;73.50;;;;;;5039350;28;20035;-60
2023/05/06 06:19:39;;;;;;;7.82;4.38;;;16.60;73.40;;;;;;5023510;28;20041;-61
2023/05/06 06:22:05;;;;;;;4.82;4.30;;;16.60;73.30;;;;;;5036738;28;20021;-64
2023/05/06 06:24:33;;;;;;;6.82;4.47;;;16.70;73.10;;;;;;5038864;28;20022;-62
2023/05/06 06:27:00;;;;;;;7.30;4.60;;;16.80;73.10;;;;;;5039735;28;20045;-62
2023/05/06 06:29:26;;;;;;;5.50;4.13;;;16.90;72.90;;;;;;5038070;28;20107;-64
2023/05/06 06:31:51;;;;;;;4.57;3.70;;;17.00;72.70;;;;;;5036798;28;20037;-61
2023/05/06 06:34:17;;;;;;;4.57;4.10;;;17.10;72.50;;;;;;5038247;28;20030;-62
2023/05/06 06:36:43;;;;;;;4.78;4.15;;;17.10;72.30;;;;;;5036152;28;20032;-61
2023/05/06 06:39:10;;;;;;;5.32;4.55;;;17.20;72.00;;;;;;5032467;28;20064;-62
2023/05/06 06:41:36;;;;;;;6.53;4.25;;;17.30;72.00;;;;;;4936581;28;20132;-62
2023/05/06 06:44:02;;;;;;;5.55;4.60;;;17.30;71.60;;;;;;5037157;28;20167;-61
2023/05/06 06:46:27;;;;;;;8.07;4.45;;;17.40;71.40;;;;;;5036718;28;20049;-62
2023/05/06 06:48:54;;;;;;;7.30;4.80;;;17.40;71.40;;;;;;5037526;28;20033;-61
2023/05/06 06:51:19;;;;;;;6.55;4.85;;;17.40;71.40;;;;;;5034041;28;20024;-61
2023/05/06 06:53:47;;;;;;;6.00;4.72;;;17.50;71.40;;;;;;5036562;28;20037;-60
2023/05/06 06:56:14;;;;;;;7.50;4.93;;;17.50;71.30;;;;;;5037579;28;20089;-61
2023/05/06 06:58:40;;;;;;;6.35;4.97;;;17.60;71.30;;;;;;5039698;28;20108;-61
2023/05/06 07:01:07;;;;;;;5.40;4.60;;;17.70;71.80;;;;;;5025042;28;20068;-62
2023/05/06 07:03:33;;;;;;;4.22;3.83;;;17.80;72.20;;;;;;5034297;28;20029;-61
2023/05/06 07:05:58;;;;;;;6.22;3.70;;;18.00;71.80;;;;;;5034143;28;20034;-60
2023/05/06 07:08:24;;;;;;;96.13;11.82;;;18.10;71.00;;;;;;5030864;28;20419;-60
2023/05/06 07:10:50;;;;;;;9.55;4.43;;;18.20;70.50;;;;;;5029495;28;20040;-61
2023/05/06 07:13:16;;;;;;;7.88;3.72;;;18.40;69.70;;;;;;5033208;28;20046;-60
2023/05/06 07:15:41;;;;;;;4.90;2.22;;;18.40;69.00;;;;;;5033465;28;20025;-61
2023/05/06 07:18:08;;;;;;;3.17;2.30;;;18.40;67.80;;;;;;5037129;28;20460;-61
2023/05/06 07:20:33;;;;;;;4.82;2.40;;;18.40;67.20;;;;;;5039513;28;20026;-60
2023/05/06 07:22:59;;;;;;;3.60;2.72;;;18.30;66.90;;;;;;5020410;28;20028;-60
2023/05/06 07:25:26;;;;;;;3.67;2.50;;;18.30;67.50;;;;;;5035998;28;20053;-60
2023/05/06 07:27:52;;;;;;;4.93;2.15;;;18.30;68.10;;;;;;5035638;28;20030;-60
2023/05/06 07:30:19;;;;;;;2.75;1.90;;;18.40;68.20;;;;;;5035551;28;20052;-63
2023/05/06 07:32:44;;;;;;;9.30;2.22;;;18.50;68.30;;;;;;5028358;28;20031;-61
2023/05/06 07:35:10;;;;;;;2.33;1.52;;;18.70;68.30;;;;;;5029033;28;20042;-61
2023/05/06 07:37:36;;;;;;;5.32;2.20;;;18.90;67.70;;;;;;5034715;28;20450;-60
2023/05/06 07:40:02;;;;;;;2.88;1.50;;;19.00;67.20;;;;;;5036583;28;20099;-61
2023/05/06 07:42:27;;;;;;;4.38;1.60;;;19.10;65.60;;;;;;4926531;28;20037;-61
2023/05/06 07:44:53;;;;;;;4.03;1.80;;;19.20;65.00;;;;;;5034438;28;20043;-60
2023/05/06 07:47:30;;;;;;;4.25;1.30;;;19.30;64.20;;;;;;5037743;28;20049;-61
2023/05/06 07:49:56;;;;;;;2.20;1.33;;;19.30;63.40;;;;;;5032238;28;20033;-62
2023/05/06 07:52:22;;;;;;;2.22;1.52;;;19.30;64.00;;;;;;5001222;28;20033;-61
2023/05/06 07:54:48;;;;;;;2.55;1.35;;;19.30;64.30;;;;;;5034362;28;20049;-61
2023/05/06 07:57:14;;;;;;;3.85;1.40;;;19.40;64.40;;;;;;5029682;28;20060;-60
2023/05/06 07:59:42;;;;;;;2.35;1.27;;;19.50;64.60;;;;;;5019012;28;20140;-62
2023/05/06 08:02:08;;;;;;;3.22;1.85;;;19.60;64.50;;;;;;5031512;28;20029;-61
2023/05/06 08:04:34;;;;;;;1.95;1.20;;;19.70;63.70;;;;;;5033771;28;20029;-61
2023/05/06 08:07:00;;;;;;;2.05;1.35;;;19.70;62.50;;;;;;5034510;28;20030;-59
2023/05/06 08:09:26;;;;;;;2.42;1.38;;;19.70;61.80;;;;;;5034742;28;21382;-61
2023/05/06 08:11:52;;;;;;;3.13;1.30;;;19.60;61.80;;;;;;5031853;28;20025;-59
2023/05/06 08:14:17;;;;;;;2.47;1.20;;;19.60;61.50;;;;;;5036017;28;20037;-61
2023/05/06 08:16:43;;;;;;;6.47;1.20;;;19.60;62.00;;;;;;5036229;28;20032;-61
2023/05/06 08:19:09;;;;;;;4.22;1.38;;;19.70;62.60;;;;;;5035774;28;20037;-61
2023/05/06 08:21:34;;;;;;;3.90;0.95;;;19.80;62.60;;;;;;5035036;28;20049;-60
2023/05/06 08:24:00;;;;;;;1.95;1.30;;;20.00;61.30;;;;;;5017057;28;20044;-61
2023/05/06 08:26:26;;;;;;;3.20;1.23;;;20.10;60.80;;;;;;5031530;28;20037;-61
2023/05/06 08:28:51;;;;;;;2.20;1.10;;;20.20;60.00;;;;;;5016950;28;20099;-61
2023/05/06 08:31:17;;;;;;;2.22;1.48;;;20.30;60.40;;;;;;5034139;28;20753;-59
2023/05/06 08:33:43;;;;;;;1.92;1.08;;;20.40;60.70;;;;;;5034754;28;20030;-60
2023/05/06 08:36:08;;;;;;;1.30;1.00;;;20.50;60.30;;;;;;5034035;28;20525;-61
2023/05/06 08:38:34;;;;;;;1.88;1.00;;;20.70;60.10;;;;;;5036018;28;20060;-61
2023/05/06 08:41:06;;;;;;;1.42;0.90;;;20.80;59.20;;;;;;4982946;28;20659;-60
2023/05/06 08:43:39;;;;;;;2.45;1.30;;;20.80;58.40;;;;;;5035972;28;20033;-60
2023/05/06 08:46:05;;;;;;;3.53;0.97;;;20.70;57.90;;;;;;5034974;28;20032;-60
2023/05/06 08:48:31;;;;;;;1.33;0.93;;;20.60;57.90;;;;;;5033905;28;20029;-63
2023/05/06 08:51:02;;;;;;;4.50;1.30;;;20.50;58.10;;;;;;5035840;28;20105;-60
2023/05/06 08:53:29;;;;;;;5.35;1.10;;;20.50;58.00;;;;;;5029601;28;20473;-59
2023/05/06 08:56:00;;;;;;;1.30;0.90;;;20.50;59.00;;;;;;5032148;28;20026;-62
2023/05/06 08:58:26;;;;;;;2.13;0.82;;;20.60;59.60;;;;;;5035692;28;20040;-61
2023/05/06 09:00:52;;;;;;;2.58;1.10;;;20.70;59.20;;;;;;5029767;28;20404;-61
2023/05/06 09:03:18;;;;;;;2.15;0.98;;;20.90;58.00;;;;;;5033008;28;20036;-61
2023/05/06 09:05:43;;;;;;;2.50;0.88;;;21.00;57.40;;;;;;5035224;28;20029;-62
2023/05/06 09:08:10;;;;;;;2.72;0.90;;;21.10;56.50;;;;;;5034452;28;20056;-63
2023/05/06 09:10:43;;;;;;;2.10;0.90;;;21.20;57.00;;;;;;5033768;28;20033;-60
2023/05/06 09:13:15;;;;;;;2.17;1.02;;;21.40;56.50;;;;;;5034584;28;20075;-60
2023/05/06 09:15:46;;;;;;;1.17;0.90;;;21.50;56.70;;;;;;5029861;28;20075;-60
2023/05/06 09:18:12;;;;;;;0.80;0.65;;;21.50;55.90;;;;;;5036950;28;20156;-61
2023/05/06 09:20:46;;;;;;;2.08;0.80;;;21.50;54.80;;;;;;5035040;28;20029;-61
2023/05/06 09:23:14;;;;;;;1.85;0.75;;;21.40;53.70;;;;;;5019982;28;20025;-61
2023/05/06 09:25:40;;;;;;;4.03;1.10;;;21.30;54.00;;;;;;5036973;28;20064;-62
2023/05/06 09:28:08;;;;;;;3.65;0.75;;;21.10;53.80;;;;;;5038359;28;20036;-62
2023/05/06 09:30:41;;;;;;;2.30;0.90;;;20.90;54.80;;;;;;5035528;28;20041;-62
2023/05/06 09:33:08;;;;;;;1.10;0.70;;;20.90;55.10;;;;;;5040614;28;20048;-62
2023/05/06 09:35:41;;;;;;;2.33;0.80;;;20.90;56.00;;;;;;5035559;28;20458;-61
2023/05/06 09:38:08;;;;;;;2.17;0.68;;;21.10;54.60;;;;;;5033997;28;20033;-61
2023/05/06 09:40:35;;;;;;;0.65;0.60;;;21.20;55.00;;;;;;4948133;28;20030;-61
2023/05/06 09:43:01;;;;;;;2.53;0.68;;;21.40;55.40;;;;;;5033609;28;20037;-63
2023/05/06 09:45:28;;;;;;;5.57;0.82;;;21.60;54.90;;;;;;5032847;28;20033;-60
2023/05/06 09:47:54;;;;;;;1.27;0.75;;;21.70;53.10;;;;;;5031282;28;20038;-61
2023/05/06 09:50:21;;;;;;;2.33;0.70;;;21.80;52.50;;;;;;5033479;28;20049;-60
2023/05/06 09:52:48;;;;;;;1.50;0.60;;;21.80;52.20;;;;;;5016758;28;20025;-60
2023/05/06 09:55:14;;;;;;;1.30;0.80;;;21.70;52.20;;;;;;5032721;28;20037;-61
2023/05/06 09:57:40;;;;;;;0.98;0.77;;;21.70;52.60;;;;;;5032367;28;20028;-61
2023/05/06 10:00:10;;;;;;;2.15;0.80;;;21.70;52.80;;;;;;5035918;28;20391;-59
2023/05/06 10:02:38;;;;;;;1.10;0.70;;;21.80;52.70;;;;;;5029485;28;20365;-61
2023/05/06 10:05:04;;;;;;;1.88;0.70;;;21.90;53.20;;;;;;5032309;28;20053;-61
2023/05/06 10:07:31;;;;;;;1.20;0.77;;;22.00;53.20;;;;;;5031946;28;20449;-61
2023/05/06 10:09:59;;;;;;;1.95;0.90;;;22.10;53.00;;;;;;5033222;28;20469;-62
2023/05/06 10:12:25;;;;;;;2.78;0.70;;;22.20;51.30;;;;;;5030432;28;20045;-61
2023/05/06 10:14:50;;;;;;;2.20;0.90;;;22.20;50.80;;;;;;5032845;28;20037;-62
2023/05/06 10:17:17;;;;;;;1.38;0.85;;;22.10;51.40;;;;;;5032809;28;20038;-63
2023/05/06 10:19:45;;;;;;;1.05;0.77;;;22.20;52.10;;;;;;5033662;28;20055;-61
2023/05/06 10:22:22;;;;;;;1.20;0.68;;;22.30;52.00;;;;;;5034896;28;20045;-62
2023/05/06 10:24:57;;;;;;;1.02;0.70;;;22.40;50.50;;;;;;5034699;28;20057;-63
2023/05/06 10:27:24;;;;;;;1.98;0.73;;;22.60;50.00;;;;;;5032235;28;20166;-62
2023/05/06 10:29:57;;;;;;;4.22;0.80;;;22.70;51.20;;;;;;5035450;28;20461;-62
2023/05/06 10:32:29;;;;;;;3.00;0.68;;;22.80;50.60;;;;;;5032954;28;20123;-64
2023/05/06 10:34:59;;;;;;;1.02;0.60;;;23.00;49.60;;;;;;5034016;28;20351;-62
2023/05/06 10:37:29;;;;;;;4.28;1.42;;;22.80;49.30;;;;;;5028480;28;20029;-62
2023/05/06 10:39:55;;;;;;;1.05;0.70;;;22.70;49.60;;;;;;5031964;28;20092;-64
2023/05/06 10:42:26;;;;;;;4.18;0.80;;;22.60;50.50;;;;;;4944508;28;20318;-62
2023/05/06 10:44:58;;;;;;;0.75;0.75;;;22.60;50.10;;;;;;5033517;28;20042;-62
2023/05/06 10:47:25;;;;;;;0.77;0.70;;;22.60;50.30;;;;;;5033172;28;20036;-62
2023/05/06 10:50:19;;;;;;;3.25;0.90;;;22.60;51.10;;;;;;5032692;28;20469;-63
2023/05/06 10:52:46;;;;;;;1.10;0.77;;;22.70;51.20;;;;;;5031860;28;20022;-62
2023/05/06 10:55:32;;;;;;;3.75;0.70;;;23.00;51.70;;;;;;5033408;28;20664;-62
2023/05/06 10:58:09;;;;;;;1.65;0.80;;;23.20;50.10;;;;;;5035406;28;20116;-62
2023/05/06 11:00:35;;;;;;;2.85;0.70;;;23.40;50.90;;;;;;5034612;28;20505;-63
2023/05/06 11:03:06;;;;;;;1.27;0.88;;;23.60;50.90;;;;;;5037125;28;20029;-61
2023/05/06 11:05:45;;;;;;;0.77;0.70;;;23.80;49.90;;;;;;5018213;28;20026;-63
2023/05/06 11:08:11;;;;;;;2.20;1.00;;;24.00;48.80;;;;;;5036140;28;20041;-62
2023/05/06 11:10:37;;;;;;;1.30;0.75;;;24.20;49.40;;;;;;5019969;28;20045;-62
2023/05/06 11:13:27;;;;;;;1.33;0.80;;;24.30;49.20;;;;;;5034889;28;20049;-62
2023/05/06 11:15:57;;;;;;;2.25;0.80;;;24.40;45.20;;;;;;5036775;28;20025;-62
2023/05/06 11:18:26;;;;;;;3.03;0.70;;;24.40;46.20;;;;;;5034221;28;20490;-64
2023/05/06 11:21:03;;;;;;;3.58;0.75;;;24.40;45.90;;;;;;5035432;28;20057;-62
2023/05/06 11:23:41;;;;;;;1.10;0.70;;;24.30;45.40;;;;;;5035681;28;20502;-61
2023/05/06 11:26:11;;;;;;;2.30;0.75;;;24.20;46.30;;;;;;5037511;28;20037;-62
2023/05/06 11:28:37;;;;;;;3.47;0.80;;;24.20;46.70;;;;;;5032333;28;20056;-63
2023/05/06 11:31:03;;;;;;;1.15;0.70;;;24.20;45.70;;;;;;5029008;28;20464;-63
2023/05/06 11:33:34;;;;;;;1.08;0.68;;;24.30;45.40;;;;;;5027553;28;20104;-63
2023/05/06 11:36:00;;;;;;;1.55;0.60;;;24.30;44.80;;;;;;5030276;28;20021;-61
2023/05/06 11:38:38;;;;;;;0.68;0.60;;;24.30;45.70;;;;;;5029758;28;20037;-61
2023/05/06 11:41:04;;;;;;;1.20;0.63;;;24.40;46.30;;;;;;4981788;28;20113;-62
2023/05/06 11:43:32;;;;;;;2.15;0.60;;;24.40;45.90;;;;;;5028028;28;20064;-62
2023/05/06 11:45:58;;;;;;;3.20;0.55;;;24.50;45.60;;;;;;5026256;28;20044;-62
2023/05/06 11:48:24;;;;;;;0.85;0.52;;;24.70;45.00;;;;;;5035187;28;20029;-63
2023/05/06 11:50:50;;;;;;;3.15;0.75;;;24.80;45.60;;;;;;5033396;28;20040;-62
2023/05/06 11:53:19;;;;;;;1.38;0.63;;;25.00;45.10;;;;;;5031252;28;20037;-61
2023/05/06 11:55:46;;;;;;;5.18;0.82;;;25.10;45.00;;;;;;5031232;28;20056;-61
2023/05/06 11:58:25;;;;;;;1.88;0.60;;;25.40;45.70;;;;;;5031178;28;20034;-63
2023/05/06 12:01:02;;;;;;;1.40;0.65;;;25.50;45.10;;;;;;5031243;28;20053;-63
2023/05/06 12:03:29;;;;;;;2.20;0.65;;;25.80;44.00;;;;;;5035546;28;20532;-63
2023/05/06 12:05:55;;;;;;;0.55;0.50;;;25.90;43.30;;;;;;5027557;28;20030;-63
2023/05/06 12:08:24;;;;;;;2.20;0.50;;;26.00;44.00;;;;;;5029756;28;20048;-61
2023/05/06 12:10:59;;;;;;;3.15;0.40;;;26.20;43.40;;;;;;5028227;28;20082;-62
2023/05/06 12:13:26;;;;;;;2.38;0.73;;;26.30;43.10;;;;;;5025561;28;20033;-63
2023/05/06 12:15:53;;;;;;;0.80;0.63;;;26.40;43.60;;;;;;5028202;28;20136;-63
2023/05/06 12:18:20;;;;;;;1.23;0.63;;;26.50;42.80;;;;;;5027007;28;20030;-62
2023/05/06 12:20:46;;;;;;;1.50;0.80;;;26.60;43.20;;;;;;5007745;28;20064;-62
2023/05/06 12:23:14;;;;;;;1.90;0.52;;;26.60;42.80;;;;;;5025966;28;20022;-62
2023/05/06 12:25:41;;;;;;;2.30;0.80;;;26.70;42.10;;;;;;5025143;28;20083;-62
2023/05/06 12:28:17;;;;;;;0.73;0.50;;;26.70;41.70;;;;;;5026146;28;20064;-63
2023/05/06 12:30:43;;;;;;;6.05;0.70;;;26.70;40.50;;;;;;5028597;28;20044;-62
2023/05/06 12:33:10;;;;;;;2.45;0.80;;;26.70;40.90;;;;;;5027343;28;20075;-63
2023/05/06 12:35:36;;;;;;;0.77;0.68;;;26.60;40.50;;;;;;5029316;28;20030;-61
2023/05/06 12:38:16;;;;;;;2.25;0.90;;;26.50;40.80;;;;;;5027838;28;20052;-62
2023/05/06 12:40:43;;;;;;;1.35;0.70;;;26.40;41.00;;;;;;4952662;28;20029;-63
2023/05/06 12:43:10;;;;;;;0.57;0.40;;;26.30;40.90;;;;;;5035702;28;20544;-64
2023/05/06 12:45:38;;;;;;;1.63;0.70;;;26.30;41.20;;;;;;5023197;28;20059;-62